sensor_id;sensor_type;location;lat;lon;timestamp;P1;durP1;ratioP1;P2;durP2;ratioP2
22883;SDS011;13386;24.786;110.488;2023-10-08T00:01:16;24.33;;;9.48;;
22883;SDS011;13386;24.786;110.488;2023-10-08T00:03:46;22.17;;;9.75;;
22883;SDS011;13386;24.786;110.488;2023-10-08T00:06:19;24.17;;;9.88;;
22883;SDS011;13386;24.786;110.488;2023-10-08T00:08:53;22.60;;;9.57;;
22883;SDS011;13386;24.786;110.488;2023-10-08T00:11:28;23.55;;;9.40;;
22883;SDS011;13386;24.786;110.488;2023-10-08T00:13:58;23.33;;;9.80;;
22883;SDS011;13386;24.786;110.488;2023-10-08T00:16:28;23.75;;;9.23;;
22883;SDS011;13386;24.786;110.488;2023-10-08T00:19:00;38.10;;;10.82;;
22883;SDS011;13386;24.786;110.488;2023-10-08T00:21:37;21.73;;;8.57;;
22883;SDS011;13386;24.786;110.488;2023-10-08T00:24:11;24.25;;;8.95;;
22883;SDS011;13386;24.786;110.488;2023-10-08T00:26:41;25.73;;;9.20;;
22883;SDS011;13386;24.786;110.488;2023-10-08T00:29:16;22.67;;;9.10;;
22883;SDS011;13386;24.786;110.488;2023-10-08T00:31:48;21.63;;;8.93;;
22883;SDS011;13386;24.786;110.488;2023-10-08T00:34:21;22.00;;;8.68;;
22883;SDS011;13386;24.786;110.488;2023-10-08T00:36:55;22.70;;;8.68;;
22883;SDS011;13386;24.786;110.488;2023-10-08T00:39:32;23.48;;;9.48;;
22883;SDS011;13386;24.786;110.488;2023-10-08T00:42:05;22.23;;;9.63;;
22883;SDS011;13386;24.786;110.488;2023-10-08T00:44:35;24.45;;;9.77;;
22883;SDS011;13386;24.786;110.488;2023-10-08T00:47:15;88.32;;;18.33;;
22883;SDS011;13386;24.786;110.488;2023-10-08T00:49:48;38.17;;;11.15;;
22883;SDS011;13386;24.786;110.488;2023-10-08T00:52:33;35.60;;;10.48;;
22883;SDS011;13386;24.786;110.488;2023-10-08T00:55:09;34.30;;;9.77;;
22883;SDS011;13386;24.786;110.488;2023-10-08T00:57:47;20.77;;;8.30;;
22883;SDS011;13386;24.786;110.488;2023-10-08T01:00:20;22.73;;;8.60;;
22883;SDS011;13386;24.786;110.488;2023-10-08T01:02:59;21.10;;;9.13;;
22883;SDS011;13386;24.786;110.488;2023-10-08T01:05:41;22.65;;;8.90;;
22883;SDS011;13386;24.786;110.488;2023-10-08T01:08:15;20.75;;;8.63;;
22883;SDS011;13386;24.786;110.488;2023-10-08T01:10:50;22.40;;;8.52;;
22883;SDS011;13386;24.786;110.488;2023-10-08T01:13:30;19.10;;;8.13;;
22883;SDS011;13386;24.786;110.488;2023-10-08T01:16:11;25.92;;;8.63;;
22883;SDS011;13386;24.786;110.488;2023-10-08T01:18:41;22.70;;;9.02;;
22883;SDS011;13386;24.786;110.488;2023-10-08T01:24:02;21.73;;;7.93;;
22883;SDS011;13386;24.786;110.488;2023-10-08T01:26:34;21.40;;;8.20;;
22883;SDS011;13386;24.786;110.488;2023-10-08T01:29:15;23.33;;;8.43;;
22883;SDS011;13386;24.786;110.488;2023-10-08T01:31:47;19.50;;;7.72;;
22883;SDS011;13386;24.786;110.488;2023-10-08T01:34:20;19.13;;;8.13;;
22883;SDS011;13386;24.786;110.488;2023-10-08T01:36:55;16.83;;;6.85;;
22883;SDS011;13386;24.786;110.488;2023-10-08T01:39:30;17.80;;;7.63;;
22883;SDS011;13386;24.786;110.488;2023-10-08T01:42:01;17.52;;;7.57;;
22883;SDS011;13386;24.786;110.488;2023-10-08T01:44:32;18.20;;;7.75;;
22883;SDS011;13386;24.786;110.488;2023-10-08T01:47:03;18.48;;;7.57;;
22883;SDS011;13386;24.786;110.488;2023-10-08T01:49:34;18.25;;;7.40;;
22883;SDS011;13386;24.786;110.488;2023-10-08T01:52:06;18.15;;;7.47;;
22883;SDS011;13386;24.786;110.488;2023-10-08T01:54:42;17.75;;;6.97;;
22883;SDS011;13386;24.786;110.488;2023-10-08T01:57:13;19.90;;;7.70;;
22883;SDS011;13386;24.786;110.488;2023-10-08T01:59:43;19.92;;;7.93;;
22883;SDS011;13386;24.786;110.488;2023-10-08T02:02:14;19.95;;;7.57;;
22883;SDS011;13386;24.786;110.488;2023-10-08T02:04:44;17.20;;;7.00;;
22883;SDS011;13386;24.786;110.488;2023-10-08T02:07:14;17.77;;;6.97;;
22883;SDS011;13386;24.786;110.488;2023-10-08T02:09:46;16.40;;;7.10;;
22883;SDS011;13386;24.786;110.488;2023-10-08T02:12:16;16.60;;;6.97;;
22883;SDS011;13386;24.786;110.488;2023-10-08T02:14:47;17.25;;;6.25;;
22883;SDS011;13386;24.786;110.488;2023-10-08T02:17:17;13.80;;;6.15;;
22883;SDS011;13386;24.786;110.488;2023-10-08T02:19:50;16.63;;;6.35;;
22883;SDS011;13386;24.786;110.488;2023-10-08T02:22:20;15.10;;;6.30;;
22883;SDS011;13386;24.786;110.488;2023-10-08T02:24:52;13.82;;;5.32;;
22883;SDS011;13386;24.786;110.488;2023-10-08T02:27:28;12.38;;;5.47;;
22883;SDS011;13386;24.786;110.488;2023-10-08T02:30:00;12.10;;;5.40;;
22883;SDS011;13386;24.786;110.488;2023-10-08T02:32:33;13.13;;;5.18;;
22883;SDS011;13386;24.786;110.488;2023-10-08T02:35:04;10.90;;;5.22;;
22883;SDS011;13386;24.786;110.488;2023-10-08T02:37:36;13.18;;;5.63;;
22883;SDS011;13386;24.786;110.488;2023-10-08T02:40:09;14.27;;;5.63;;
22883;SDS011;13386;24.786;110.488;2023-10-08T02:42:47;11.52;;;5.45;;
22883;SDS011;13386;24.786;110.488;2023-10-08T02:45:25;14.20;;;5.00;;
22883;SDS011;13386;24.786;110.488;2023-10-08T02:47:56;12.90;;;5.10;;
22883;SDS011;13386;24.786;110.488;2023-10-08T02:50:26;12.68;;;4.88;;
22883;SDS011;13386;24.786;110.488;2023-10-08T02:52:57;10.75;;;4.90;;
22883;SDS011;13386;24.786;110.488;2023-10-08T02:55:35;12.57;;;5.57;;
22883;SDS011;13386;24.786;110.488;2023-10-08T02:58:12;12.55;;;5.40;;
22883;SDS011;13386;24.786;110.488;2023-10-08T03:00:44;13.32;;;5.75;;
22883;SDS011;13386;24.786;110.488;2023-10-08T03:03:15;13.00;;;4.97;;
22883;SDS011;13386;24.786;110.488;2023-10-08T03:05:46;12.63;;;5.50;;
22883;SDS011;13386;24.786;110.488;2023-10-08T03:08:18;9.63;;;4.63;;
22883;SDS011;13386;24.786;110.488;2023-10-08T03:10:50;11.80;;;4.93;;
22883;SDS011;13386;24.786;110.488;2023-10-08T03:13:22;13.05;;;5.00;;
22883;SDS011;13386;24.786;110.488;2023-10-08T03:15:53;13.77;;;5.50;;
22883;SDS011;13386;24.786;110.488;2023-10-08T03:18:36;12.45;;;4.93;;
22883;SDS011;13386;24.786;110.488;2023-10-08T03:21:11;12.82;;;5.72;;
22883;SDS011;13386;24.786;110.488;2023-10-08T03:23:49;13.73;;;5.53;;
22883;SDS011;13386;24.786;110.488;2023-10-08T03:26:27;14.32;;;5.20;;
22883;SDS011;13386;24.786;110.488;2023-10-08T03:29:01;11.73;;;5.25;;
22883;SDS011;13386;24.786;110.488;2023-10-08T03:31:36;15.93;;;5.05;;
22883;SDS011;13386;24.786;110.488;2023-10-08T03:34:21;11.73;;;4.63;;
22883;SDS011;13386;24.786;110.488;2023-10-08T03:36:55;12.23;;;5.20;;
22883;SDS011;13386;24.786;110.488;2023-10-08T03:39:32;12.95;;;4.65;;
22883;SDS011;13386;24.786;110.488;2023-10-08T03:42:23;13.40;;;5.50;;
22883;SDS011;13386;24.786;110.488;2023-10-08T03:44:57;12.02;;;5.30;;
22883;SDS011;13386;24.786;110.488;2023-10-08T03:47:38;11.18;;;4.70;;
22883;SDS011;13386;24.786;110.488;2023-10-08T03:50:13;13.30;;;5.15;;
22883;SDS011;13386;24.786;110.488;2023-10-08T03:52:47;19.05;;;5.70;;
22883;SDS011;13386;24.786;110.488;2023-10-08T03:55:19;14.27;;;5.22;;
22883;SDS011;13386;24.786;110.488;2023-10-08T03:57:55;13.05;;;5.53;;
22883;SDS011;13386;24.786;110.488;2023-10-08T04:00:25;62.33;;;10.88;;
22883;SDS011;13386;24.786;110.488;2023-10-08T04:03:08;13.82;;;5.28;;
22883;SDS011;13386;24.786;110.488;2023-10-08T04:05:39;16.60;;;6.38;;
22883;SDS011;13386;24.786;110.488;2023-10-08T04:08:26;14.05;;;5.63;;
22883;SDS011;13386;24.786;110.488;2023-10-08T04:11:20;12.63;;;5.30;;
22883;SDS011;13386;24.786;110.488;2023-10-08T04:14:00;13.30;;;5.45;;
22883;SDS011;13386;24.786;110.488;2023-10-08T04:16:33;13.10;;;6.10;;
22883;SDS011;13386;24.786;110.488;2023-10-08T04:19:04;11.55;;;5.68;;
22883;SDS011;13386;24.786;110.488;2023-10-08T04:21:35;13.43;;;4.65;;
22883;SDS011;13386;24.786;110.488;2023-10-08T04:24:08;12.23;;;5.55;;
22883;SDS011;13386;24.786;110.488;2023-10-08T04:26:43;14.07;;;5.88;;
22883;SDS011;13386;24.786;110.488;2023-10-08T04:29:13;12.43;;;5.55;;
22883;SDS011;13386;24.786;110.488;2023-10-08T04:31:51;13.73;;;5.43;;
22883;SDS011;13386;24.786;110.488;2023-10-08T04:34:28;11.98;;;4.95;;
22883;SDS011;13386;24.786;110.488;2023-10-08T04:37:01;14.05;;;5.32;;
22883;SDS011;13386;24.786;110.488;2023-10-08T04:39:39;14.38;;;6.03;;
22883;SDS011;13386;24.786;110.488;2023-10-08T04:42:17;12.45;;;5.40;;
22883;SDS011;13386;24.786;110.488;2023-10-08T04:44:52;12.38;;;5.22;;
22883;SDS011;13386;24.786;110.488;2023-10-08T04:47:24;13.60;;;6.10;;
22883;SDS011;13386;24.786;110.488;2023-10-08T04:50:10;18.67;;;6.25;;
22883;SDS011;13386;24.786;110.488;2023-10-08T04:52:45;12.23;;;5.80;;
22883;SDS011;13386;24.786;110.488;2023-10-08T04:55:26;15.50;;;6.53;;
22883;SDS011;13386;24.786;110.488;2023-10-08T04:57:59;16.08;;;6.32;;
22883;SDS011;13386;24.786;110.488;2023-10-08T05:00:39;15.95;;;6.45;;
22883;SDS011;13386;24.786;110.488;2023-10-08T05:03:20;13.52;;;6.13;;
22883;SDS011;13386;24.786;110.488;2023-10-08T05:06:02;14.27;;;6.07;;
22883;SDS011;13386;24.786;110.488;2023-10-08T05:08:47;13.38;;;6.22;;
22883;SDS011;13386;24.786;110.488;2023-10-08T05:11:31;14.48;;;6.40;;
22883;SDS011;13386;24.786;110.488;2023-10-08T05:14:36;13.00;;;6.10;;
22883;SDS011;13386;24.786;110.488;2023-10-08T05:17:22;15.02;;;6.10;;
22883;SDS011;13386;24.786;110.488;2023-10-08T05:20:01;15.90;;;6.38;;
22883;SDS011;13386;24.786;110.488;2023-10-08T05:22:46;14.98;;;6.55;;
22883;SDS011;13386;24.786;110.488;2023-10-08T05:25:24;14.13;;;5.95;;
22883;SDS011;13386;24.786;110.488;2023-10-08T05:28:02;18.15;;;6.03;;
22883;SDS011;13386;24.786;110.488;2023-10-08T05:30:54;12.65;;;5.88;;
22883;SDS011;13386;24.786;110.488;2023-10-08T05:33:38;12.93;;;5.93;;
22883;SDS011;13386;24.786;110.488;2023-10-08T05:36:26;15.30;;;6.57;;
22883;SDS011;13386;24.786;110.488;2023-10-08T05:39:04;16.08;;;6.10;;
22883;SDS011;13386;24.786;110.488;2023-10-08T05:41:56;13.43;;;6.20;;
22883;SDS011;13386;24.786;110.488;2023-10-08T05:44:41;13.60;;;6.40;;
22883;SDS011;13386;24.786;110.488;2023-10-08T05:47:17;13.30;;;5.88;;
22883;SDS011;13386;24.786;110.488;2023-10-08T05:50:04;20.90;;;6.18;;
22883;SDS011;13386;24.786;110.488;2023-10-08T05:52:51;12.77;;;5.90;;
22883;SDS011;13386;24.786;110.488;2023-10-08T05:55:29;16.30;;;5.70;;
22883;SDS011;13386;24.786;110.488;2023-10-08T05:58:01;16.63;;;5.90;;
22883;SDS011;13386;24.786;110.488;2023-10-08T06:00:40;15.18;;;6.40;;
22883;SDS011;13386;24.786;110.488;2023-10-08T06:03:29;15.95;;;6.13;;
22883;SDS011;13386;24.786;110.488;2023-10-08T06:06:07;15.68;;;5.93;;
22883;SDS011;13386;24.786;110.488;2023-10-08T06:09:04;14.40;;;5.90;;
22883;SDS011;13386;24.786;110.488;2023-10-08T06:12:02;15.55;;;6.53;;
22883;SDS011;13386;24.786;110.488;2023-10-08T06:14:56;17.65;;;6.63;;
22883;SDS011;13386;24.786;110.488;2023-10-08T06:17:41;17.07;;;7.27;;
22883;SDS011;13386;24.786;110.488;2023-10-08T06:20:36;19.10;;;7.00;;
22883;SDS011;13386;24.786;110.488;2023-10-08T06:23:10;19.40;;;7.28;;
22883;SDS011;13386;24.786;110.488;2023-10-08T06:25:43;16.73;;;7.10;;
22883;SDS011;13386;24.786;110.488;2023-10-08T06:28:14;17.23;;;7.70;;
22883;SDS011;13386;24.786;110.488;2023-10-08T06:30:47;19.90;;;7.78;;
22883;SDS011;13386;24.786;110.488;2023-10-08T06:33:22;17.70;;;7.75;;
22883;SDS011;13386;24.786;110.488;2023-10-08T06:35:59;14.88;;;7.30;;
22883;SDS011;13386;24.786;110.488;2023-10-08T06:38:40;18.58;;;7.72;;
22883;SDS011;13386;24.786;110.488;2023-10-08T06:41:16;21.13;;;7.68;;
22883;SDS011;13386;24.786;110.488;2023-10-08T06:43:49;18.05;;;8.05;;
22883;SDS011;13386;24.786;110.488;2023-10-08T06:46:29;17.33;;;7.60;;
22883;SDS011;13386;24.786;110.488;2023-10-08T06:49:06;17.85;;;7.72;;
22883;SDS011;13386;24.786;110.488;2023-10-08T06:51:42;20.75;;;8.35;;
22883;SDS011;13386;24.786;110.488;2023-10-08T06:54:14;18.98;;;8.25;;
22883;SDS011;13386;24.786;110.488;2023-10-08T06:56:50;20.05;;;8.07;;
22883;SDS011;13386;24.786;110.488;2023-10-08T06:59:20;19.33;;;7.88;;
22883;SDS011;13386;24.786;110.488;2023-10-08T07:01:52;16.98;;;7.43;;
22883;SDS011;13386;24.786;110.488;2023-10-08T07:04:26;19.25;;;7.85;;
22883;SDS011;13386;24.786;110.488;2023-10-08T07:06:58;18.27;;;7.40;;
22883;SDS011;13386;24.786;110.488;2023-10-08T07:09:36;16.52;;;7.40;;
22883;SDS011;13386;24.786;110.488;2023-10-08T07:12:08;17.50;;;6.68;;
22883;SDS011;13386;24.786;110.488;2023-10-08T07:14:42;16.17;;;6.68;;
22883;SDS011;13386;24.786;110.488;2023-10-08T07:17:13;16.30;;;7.47;;
22883;SDS011;13386;24.786;110.488;2023-10-08T07:19:47;18.92;;;7.78;;
22883;SDS011;13386;24.786;110.488;2023-10-08T07:25:11;15.13;;;6.65;;
22883;SDS011;13386;24.786;110.488;2023-10-08T07:27:45;22.17;;;8.52;;
22883;SDS011;13386;24.786;110.488;2023-10-08T07:30:15;19.90;;;8.50;;
22883;SDS011;13386;24.786;110.488;2023-10-08T07:32:54;20.85;;;8.10;;
22883;SDS011;13386;24.786;110.488;2023-10-08T07:35:25;18.95;;;8.00;;
22883;SDS011;13386;24.786;110.488;2023-10-08T07:37:57;15.05;;;7.00;;
22883;SDS011;13386;24.786;110.488;2023-10-08T07:40:31;18.00;;;7.28;;
22883;SDS011;13386;24.786;110.488;2023-10-08T07:43:04;18.25;;;7.70;;
22883;SDS011;13386;24.786;110.488;2023-10-08T07:45:35;15.88;;;7.43;;
22883;SDS011;13386;24.786;110.488;2023-10-08T07:48:06;19.77;;;7.40;;
22883;SDS011;13386;24.786;110.488;2023-10-08T07:50:40;14.15;;;6.60;;
22883;SDS011;13386;24.786;110.488;2023-10-08T07:53:13;18.60;;;7.20;;
22883;SDS011;13386;24.786;110.488;2023-10-08T07:55:48;17.87;;;6.80;;
22883;SDS011;13386;24.786;110.488;2023-10-08T07:58:19;13.60;;;6.78;;
22883;SDS011;13386;24.786;110.488;2023-10-08T08:00:49;18.02;;;7.28;;
22883;SDS011;13386;24.786;110.488;2023-10-08T08:03:23;18.63;;;7.38;;
22883;SDS011;13386;24.786;110.488;2023-10-08T08:05:54;16.98;;;7.05;;
22883;SDS011;13386;24.786;110.488;2023-10-08T08:08:25;17.20;;;7.07;;
22883;SDS011;13386;24.786;110.488;2023-10-08T08:11:00;14.90;;;6.97;;
22883;SDS011;13386;24.786;110.488;2023-10-08T08:13:34;16.08;;;7.03;;
22883;SDS011;13386;24.786;110.488;2023-10-08T08:16:04;16.90;;;7.10;;
22883;SDS011;13386;24.786;110.488;2023-10-08T08:18:48;15.05;;;6.85;;
22883;SDS011;13386;24.786;110.488;2023-10-08T08:21:19;16.90;;;6.97;;
22883;SDS011;13386;24.786;110.488;2023-10-08T08:23:52;15.23;;;6.85;;
22883;SDS011;13386;24.786;110.488;2023-10-08T08:26:33;21.25;;;6.68;;
22883;SDS011;13386;24.786;110.488;2023-10-08T08:29:27;18.92;;;6.85;;
22883;SDS011;13386;24.786;110.488;2023-10-08T08:32:03;13.23;;;6.60;;
22883;SDS011;13386;24.786;110.488;2023-10-08T08:34:35;17.50;;;7.28;;
22883;SDS011;13386;24.786;110.488;2023-10-08T08:39:41;17.65;;;7.22;;
22883;SDS011;13386;24.786;110.488;2023-10-08T08:42:14;15.45;;;7.38;;
22883;SDS011;13386;24.786;110.488;2023-10-08T08:44:45;16.75;;;7.18;;
22883;SDS011;13386;24.786;110.488;2023-10-08T08:47:18;18.45;;;7.45;;
22883;SDS011;13386;24.786;110.488;2023-10-08T08:49:51;17.20;;;7.53;;
22883;SDS011;13386;24.786;110.488;2023-10-08T08:52:35;18.45;;;7.07;;
22883;SDS011;13386;24.786;110.488;2023-10-08T08:55:06;16.38;;;7.32;;
22883;SDS011;13386;24.786;110.488;2023-10-08T08:57:50;15.63;;;7.43;;
22883;SDS011;13386;24.786;110.488;2023-10-08T09:00:27;19.08;;;7.88;;
22883;SDS011;13386;24.786;110.488;2023-10-08T09:02:59;24.63;;;8.00;;
22883;SDS011;13386;24.786;110.488;2023-10-08T09:05:32;24.48;;;10.45;;
22883;SDS011;13386;24.786;110.488;2023-10-08T09:08:04;27.42;;;9.40;;
22883;SDS011;13386;24.786;110.488;2023-10-08T09:10:37;23.58;;;8.70;;
22883;SDS011;13386;24.786;110.488;2023-10-08T09:13:21;24.17;;;8.70;;
22883;SDS011;13386;24.786;110.488;2023-10-08T09:15:56;22.25;;;8.25;;
22883;SDS011;13386;24.786;110.488;2023-10-08T09:18:27;21.92;;;8.90;;
22883;SDS011;13386;24.786;110.488;2023-10-08T09:21:11;21.58;;;8.35;;
22883;SDS011;13386;24.786;110.488;2023-10-08T09:23:42;21.65;;;8.48;;
22883;SDS011;13386;24.786;110.488;2023-10-08T09:26:28;22.23;;;8.35;;
22883;SDS011;13386;24.786;110.488;2023-10-08T09:29:01;26.90;;;9.15;;
22883;SDS011;13386;24.786;110.488;2023-10-08T09:31:31;21.13;;;8.43;;
22883;SDS011;13386;24.786;110.488;2023-10-08T09:34:05;24.38;;;8.27;;
22883;SDS011;13386;24.786;110.488;2023-10-08T09:36:36;25.83;;;9.05;;
22883;SDS011;13386;24.786;110.488;2023-10-08T09:39:09;27.95;;;9.40;;
22883;SDS011;13386;24.786;110.488;2023-10-08T09:41:50;28.17;;;9.55;;
22883;SDS011;13386;24.786;110.488;2023-10-08T09:44:24;31.45;;;10.88;;
22883;SDS011;13386;24.786;110.488;2023-10-08T09:49:53;26.02;;;9.60;;
22883;SDS011;13386;24.786;110.488;2023-10-08T09:52:27;29.33;;;10.30;;
22883;SDS011;13386;24.786;110.488;2023-10-08T09:55:00;26.87;;;10.30;;
22883;SDS011;13386;24.786;110.488;2023-10-08T09:57:31;27.08;;;9.55;;
22883;SDS011;13386;24.786;110.488;2023-10-08T10:00:04;29.90;;;10.60;;
22883;SDS011;13386;24.786;110.488;2023-10-08T10:02:38;34.10;;;10.13;;
22883;SDS011;13386;24.786;110.488;2023-10-08T10:05:10;28.92;;;10.52;;
22883;SDS011;13386;24.786;110.488;2023-10-08T10:07:40;24.27;;;9.75;;
22883;SDS011;13386;24.786;110.488;2023-10-08T10:12:59;31.25;;;10.23;;
22883;SDS011;13386;24.786;110.488;2023-10-08T10:15:32;25.30;;;9.07;;
22883;SDS011;13386;24.786;110.488;2023-10-08T10:18:08;24.50;;;9.10;;
22883;SDS011;13386;24.786;110.488;2023-10-08T10:20:44;26.30;;;9.73;;
22883;SDS011;13386;24.786;110.488;2023-10-08T10:26:21;27.75;;;9.48;;
22883;SDS011;13386;24.786;110.488;2023-10-08T10:31:44;22.15;;;9.40;;
22883;SDS011;13386;24.786;110.488;2023-10-08T10:34:15;25.60;;;9.63;;
22883;SDS011;13386;24.786;110.488;2023-10-08T10:36:46;36.88;;;10.18;;
22883;SDS011;13386;24.786;110.488;2023-10-08T10:39:17;29.33;;;10.48;;
22883;SDS011;13386;24.786;110.488;2023-10-08T10:41:53;24.75;;;9.20;;
22883;SDS011;13386;24.786;110.488;2023-10-08T10:47:00;28.02;;;9.52;;
22883;SDS011;13386;24.786;110.488;2023-10-08T10:49:50;26.52;;;9.60;;
22883;SDS011;13386;24.786;110.488;2023-10-08T10:52:37;25.35;;;10.45;;
22883;SDS011;13386;24.786;110.488;2023-10-08T10:55:19;33.40;;;11.93;;
22883;SDS011;13386;24.786;110.488;2023-10-08T10:57:58;31.77;;;11.55;;
22883;SDS011;13386;24.786;110.488;2023-10-08T11:00:41;29.73;;;10.93;;
22883;SDS011;13386;24.786;110.488;2023-10-08T11:03:31;32.97;;;11.20;;
22883;SDS011;13386;24.786;110.488;2023-10-08T11:06:01;42.78;;;14.23;;
22883;SDS011;13386;24.786;110.488;2023-10-08T11:08:43;38.55;;;14.20;;
22883;SDS011;13386;24.786;110.488;2023-10-08T11:11:16;35.92;;;13.85;;
22883;SDS011;13386;24.786;110.488;2023-10-08T11:13:49;39.53;;;13.65;;
22883;SDS011;13386;24.786;110.488;2023-10-08T11:16:23;29.02;;;11.48;;
22883;SDS011;13386;24.786;110.488;2023-10-08T11:18:55;29.05;;;10.60;;
22883;SDS011;13386;24.786;110.488;2023-10-08T11:21:33;22.10;;;8.65;;
22883;SDS011;13386;24.786;110.488;2023-10-08T11:27:09;23.35;;;9.15;;
22883;SDS011;13386;24.786;110.488;2023-10-08T11:29:57;23.67;;;9.15;;
22883;SDS011;13386;24.786;110.488;2023-10-08T11:32:39;26.45;;;9.82;;
22883;SDS011;13386;24.786;110.488;2023-10-08T11:35:16;25.50;;;10.10;;
22883;SDS011;13386;24.786;110.488;2023-10-08T11:37:47;25.98;;;9.90;;
22883;SDS011;13386;24.786;110.488;2023-10-08T11:40:26;20.38;;;8.20;;
22883;SDS011;13386;24.786;110.488;2023-10-08T11:43:17;27.33;;;9.75;;
22883;SDS011;13386;24.786;110.488;2023-10-08T11:46:00;20.50;;;8.40;;
22883;SDS011;13386;24.786;110.488;2023-10-08T11:49:05;19.50;;;7.78;;
22883;SDS011;13386;24.786;110.488;2023-10-08T11:51:48;17.80;;;7.35;;
22883;SDS011;13386;24.786;110.488;2023-10-08T11:54:27;18.00;;;7.22;;
22883;SDS011;13386;24.786;110.488;2023-10-08T11:57:01;19.17;;;7.28;;
22883;SDS011;13386;24.786;110.488;2023-10-08T11:59:33;19.17;;;7.88;;
22883;SDS011;13386;24.786;110.488;2023-10-08T12:02:07;16.48;;;7.50;;
22883;SDS011;13386;24.786;110.488;2023-10-08T12:04:45;16.48;;;6.82;;
22883;SDS011;13386;24.786;110.488;2023-10-08T12:07:21;16.15;;;6.82;;
22883;SDS011;13386;24.786;110.488;2023-10-08T12:09:54;15.98;;;6.53;;
22883;SDS011;13386;24.786;110.488;2023-10-08T12:12:28;17.05;;;6.93;;
22883;SDS011;13386;24.786;110.488;2023-10-08T12:15:01;15.68;;;6.75;;
22883;SDS011;13386;24.786;110.488;2023-10-08T12:17:35;15.90;;;6.65;;
22883;SDS011;13386;24.786;110.488;2023-10-08T12:20:06;17.25;;;7.57;;
22883;SDS011;13386;24.786;110.488;2023-10-08T12:22:56;18.63;;;7.03;;
22883;SDS011;13386;24.786;110.488;2023-10-08T12:25:32;15.65;;;6.88;;
22883;SDS011;13386;24.786;110.488;2023-10-08T12:28:04;13.27;;;6.30;;
22883;SDS011;13386;24.786;110.488;2023-10-08T12:30:35;15.63;;;6.68;;
22883;SDS011;13386;24.786;110.488;2023-10-08T12:33:09;15.63;;;6.90;;
22883;SDS011;13386;24.786;110.488;2023-10-08T12:35:47;17.20;;;6.93;;
22883;SDS011;13386;24.786;110.488;2023-10-08T12:38:22;14.02;;;6.50;;
22883;SDS011;13386;24.786;110.488;2023-10-08T12:40:56;13.95;;;6.32;;
22883;SDS011;13386;24.786;110.488;2023-10-08T12:43:36;14.50;;;6.07;;
22883;SDS011;13386;24.786;110.488;2023-10-08T12:46:06;14.73;;;6.25;;
22883;SDS011;13386;24.786;110.488;2023-10-08T12:48:46;16.17;;;6.80;;
22883;SDS011;13386;24.786;110.488;2023-10-08T12:51:23;15.98;;;6.50;;
22883;SDS011;13386;24.786;110.488;2023-10-08T12:53:57;17.90;;;6.78;;
22883;SDS011;13386;24.786;110.488;2023-10-08T12:56:39;15.07;;;6.53;;
22883;SDS011;13386;24.786;110.488;2023-10-08T12:59:16;14.30;;;7.00;;
22883;SDS011;13386;24.786;110.488;2023-10-08T13:01:50;16.60;;;7.13;;
22883;SDS011;13386;24.786;110.488;2023-10-08T13:04:24;15.32;;;7.13;;
22883;SDS011;13386;24.786;110.488;2023-10-08T13:07:02;16.55;;;7.07;;
22883;SDS011;13386;24.786;110.488;2023-10-08T13:09:35;16.48;;;6.55;;
22883;SDS011;13386;24.786;110.488;2023-10-08T13:12:06;15.88;;;6.70;;
22883;SDS011;13386;24.786;110.488;2023-10-08T13:14:38;14.80;;;7.38;;
22883;SDS011;13386;24.786;110.488;2023-10-08T13:17:11;18.15;;;7.47;;
22883;SDS011;13386;24.786;110.488;2023-10-08T13:19:46;19.50;;;6.85;;
22883;SDS011;13386;24.786;110.488;2023-10-08T13:22:18;14.55;;;6.35;;
22883;SDS011;13386;24.786;110.488;2023-10-08T13:24:59;15.85;;;6.70;;
22883;SDS011;13386;24.786;110.488;2023-10-08T13:27:31;16.10;;;6.72;;
22883;SDS011;13386;24.786;110.488;2023-10-08T13:30:07;15.68;;;6.88;;
22883;SDS011;13386;24.786;110.488;2023-10-08T13:32:48;20.00;;;7.15;;
22883;SDS011;13386;24.786;110.488;2023-10-08T13:35:28;14.40;;;6.88;;
22883;SDS011;13386;24.786;110.488;2023-10-08T13:38:03;15.20;;;7.20;;
22883;SDS011;13386;24.786;110.488;2023-10-08T13:40:46;16.17;;;7.00;;
22883;SDS011;13386;24.786;110.488;2023-10-08T13:43:40;15.20;;;7.18;;
22883;SDS011;13386;24.786;110.488;2023-10-08T13:46:14;16.52;;;7.10;;
22883;SDS011;13386;24.786;110.488;2023-10-08T13:48:47;16.13;;;7.35;;
22883;SDS011;13386;24.786;110.488;2023-10-08T13:51:18;15.10;;;7.15;;
22883;SDS011;13386;24.786;110.488;2023-10-08T13:54:26;17.77;;;7.40;;
22883;SDS011;13386;24.786;110.488;2023-10-08T13:57:07;14.52;;;6.88;;
22883;SDS011;13386;24.786;110.488;2023-10-08T13:59:44;13.68;;;6.95;;
22883;SDS011;13386;24.786;110.488;2023-10-08T14:02:15;18.10;;;7.45;;
22883;SDS011;13386;24.786;110.488;2023-10-08T14:04:49;14.90;;;6.82;;
22883;SDS011;13386;24.786;110.488;2023-10-08T14:07:21;16.35;;;7.35;;
22883;SDS011;13386;24.786;110.488;2023-10-08T14:09:56;16.23;;;7.03;;
22883;SDS011;13386;24.786;110.488;2023-10-08T14:12:29;15.43;;;7.38;;
22883;SDS011;13386;24.786;110.488;2023-10-08T14:15:04;15.13;;;7.35;;
22883;SDS011;13386;24.786;110.488;2023-10-08T14:17:41;15.55;;;6.90;;
22883;SDS011;13386;24.786;110.488;2023-10-08T14:20:16;15.75;;;7.32;;
22883;SDS011;13386;24.786;110.488;2023-10-08T14:22:55;15.75;;;7.55;;
22883;SDS011;13386;24.786;110.488;2023-10-08T14:25:29;17.45;;;7.72;;
22883;SDS011;13386;24.786;110.488;2023-10-08T14:28:01;19.95;;;8.18;;
22883;SDS011;13386;24.786;110.488;2023-10-08T14:30:37;19.77;;;7.82;;
22883;SDS011;13386;24.786;110.488;2023-10-08T14:33:14;19.88;;;8.27;;
22883;SDS011;13386;24.786;110.488;2023-10-08T14:35:51;21.25;;;8.55;;
22883;SDS011;13386;24.786;110.488;2023-10-08T14:38:37;18.38;;;8.20;;
22883;SDS011;13386;24.786;110.488;2023-10-08T14:41:24;20.60;;;8.23;;
22883;SDS011;13386;24.786;110.488;2023-10-08T14:44:20;18.25;;;8.18;;
22883;SDS011;13386;24.786;110.488;2023-10-08T14:46:53;26.58;;;9.02;;
22883;SDS011;13386;24.786;110.488;2023-10-08T14:49:28;22.83;;;8.93;;
22883;SDS011;13386;24.786;110.488;2023-10-08T14:52:02;19.73;;;8.75;;
22883;SDS011;13386;24.786;110.488;2023-10-08T14:57:07;20.33;;;8.68;;
22883;SDS011;13386;24.786;110.488;2023-10-08T14:59:39;21.88;;;9.27;;
22883;SDS011;13386;24.786;110.488;2023-10-08T15:02:31;22.85;;;9.70;;
22883;SDS011;13386;24.786;110.488;2023-10-08T15:05:04;22.50;;;9.23;;
22883;SDS011;13386;24.786;110.488;2023-10-08T15:07:38;22.35;;;9.38;;
22883;SDS011;13386;24.786;110.488;2023-10-08T15:13:02;26.25;;;9.88;;
22883;SDS011;13386;24.786;110.488;2023-10-08T15:15:33;20.73;;;9.25;;
22883;SDS011;13386;24.786;110.488;2023-10-08T15:18:06;25.30;;;12.07;;
22883;SDS011;13386;24.786;110.488;2023-10-08T15:20:42;24.55;;;10.57;;
22883;SDS011;13386;24.786;110.488;2023-10-08T15:23:14;24.73;;;10.80;;
22883;SDS011;13386;24.786;110.488;2023-10-08T15:25:53;23.85;;;10.07;;
22883;SDS011;13386;24.786;110.488;2023-10-08T15:28:30;24.37;;;10.07;;
22883;SDS011;13386;24.786;110.488;2023-10-08T15:31:04;23.83;;;9.75;;